< < Back
Terminal Aerodrome Forecast


Current Version              Previous Versions:   1  2  3  4  5  6  7  8  9  

Terminal Aerodrome Forecast

655
FTUS44 KBMX 291729
TAFTCL
TAF
KTCL 291729Z 2918/3018 07009KT P6SM SCT050
     FM300200 10003KT P6SM SCT250=

Latest METAR

543
SAUS70 KWBC 292300 RRG
MTRTCL
METAR KTCL 292253Z 36007KT 10SM CLR 33/22 A2997 RMK AO2 SLP146
T03280217


USA.gov is the U.S. government's official web portal to all federal, state and local government web resources and services.